createdAt,value
2023-01-01T00:00:40.263Z,62.33
2023-01-01T00:03:06.915Z,62.37
2023-01-01T00:05:33.783Z,62.12
2023-01-01T00:08:04.616Z,61.97
2023-01-01T00:10:34.357Z,62.11
2023-01-01T00:13:03.315Z,62.12
2023-01-01T00:15:30.027Z,62.21
2023-01-01T00:17:59.223Z,61.93
2023-01-01T00:20:31.441Z,61.85
2023-01-01T00:23:04.097Z,61.91
2023-01-01T00:25:32.541Z,62.18
2023-01-01T00:27:59.263Z,62.21
2023-01-01T00:30:25.967Z,62.30
2023-01-01T00:32:54.395Z,62.51
2023-01-01T00:35:22.531Z,62.33
2023-01-01T00:37:49.087Z,62.12
2023-01-01T00:40:15.672Z,62.30
2023-01-01T00:42:42.216Z,62.06
2023-01-01T00:45:09.488Z,61.88
2023-01-01T00:47:38.204Z,61.89
2023-01-01T00:50:07.370Z,61.65
2023-01-01T00:52:33.910Z,61.56
2023-01-01T00:55:00.524Z,61.25
2023-01-01T00:57:29.446Z,61.42
2023-01-01T00:59:58.445Z,61.52
2023-01-01T01:02:25.126Z,61.65
2023-01-01T01:04:51.864Z,61.95
2023-01-01T01:07:18.413Z,61.78
2023-01-01T01:09:45.041Z,61.78
2023-01-01T01:12:18.215Z,61.73
2023-01-01T01:14:46.828Z,61.73
2023-01-01T01:17:18.261Z,61.28
2023-01-01T01:19:44.792Z,61.55
2023-01-01T01:22:11.373Z,61.52
2023-01-01T01:24:37.964Z,61.53
2023-01-01T01:27:04.531Z,61.62
2023-01-01T01:29:31.058Z,61.58
2023-01-01T01:31:57.585Z,61.40
2023-01-01T01:34:28.081Z,61.34
2023-01-01T01:36:55.488Z,61.42
2023-01-01T01:39:24.648Z,61.44
2023-01-01T01:41:51.170Z,61.59
2023-01-01T01:44:45.900Z,61.65
2023-01-01T01:47:26.537Z,61.59
2023-01-01T01:50:00.980Z,61.43
2023-01-01T01:52:29.060Z,61.28
2023-01-01T01:54:56.371Z,61.37
2023-01-01T01:57:25.665Z,61.04
2023-01-01T01:59:56.393Z,60.90
2023-01-01T02:02:32.523Z,60.90
2023-01-01T02:04:59.635Z,61.15
2023-01-01T02:07:30.106Z,61.31
2023-01-01T02:09:57.388Z,61.19
2023-01-01T02:12:27.169Z,61.29
2023-01-01T02:14:54.393Z,60.88
2023-01-01T02:17:38.820Z,61.11
2023-01-01T02:20:12.163Z,61.03
2023-01-01T02:23:04.618Z,60.93
2023-01-01T02:25:58.975Z,61.19
2023-01-01T02:28:50.777Z,60.98
2023-01-01T02:31:25.472Z,61.07
2023-01-01T02:33:58.352Z,60.49
2023-01-01T02:36:26.897Z,60.94
2023-01-01T02:38:57.073Z,60.69
2023-01-01T02:41:29.757Z,60.45
2023-01-01T02:46:24.667Z,60.75
2023-01-01T02:48:52.920Z,60.37
2023-01-01T02:51:43.392Z,60.57
2023-01-01T02:54:19.055Z,60.42
2023-01-01T02:57:08.258Z,60.63
2023-01-01T03:00:02.087Z,60.14
2023-01-01T03:02:51.359Z,60.32
2023-01-01T03:06:08.165Z,60.41
2023-01-01T03:08:56.708Z,60.30
2023-01-01T03:11:25.659Z,60.18
2023-01-01T03:14:21.332Z,60.06
2023-01-01T03:16:54.887Z,60.28
2023-01-01T03:19:29.200Z,60.29
2023-01-01T03:22:09.327Z,60.43
2023-01-01T03:24:44.817Z,60.51
2023-01-01T03:27:17.739Z,60.43
2023-01-01T03:29:45.407Z,60.28
2023-01-01T03:32:16.207Z,60.53
2023-01-01T03:34:50.682Z,60.46
2023-01-01T03:37:25.416Z,60.40
2023-01-01T03:39:56.060Z,60.52
2023-01-01T03:42:54.987Z,60.43
2023-01-01T03:45:29.512Z,60.59
2023-01-01T03:47:59.939Z,60.56
2023-01-01T03:50:39.343Z,60.66
2023-01-01T03:53:27.205Z,61.06
2023-01-01T03:56:13.689Z,60.87
2023-01-01T03:58:49.882Z,61.10
2023-01-01T04:01:24.265Z,61.15
2023-01-01T04:03:51.158Z,60.93
2023-01-01T04:06:17.832Z,60.88
2023-01-01T04:08:47.553Z,61.25
2023-01-01T04:11:38.766Z,60.90
2023-01-01T04:14:05.710Z,61.14
2023-01-01T04:16:32.749Z,61.22
2023-01-01T04:18:59.447Z,61.22
2023-01-01T04:21:26.118Z,61.65
2023-01-01T04:23:52.677Z,61.44
2023-01-01T04:26:19.234Z,61.29
2023-01-01T04:28:48.232Z,61.71
2023-01-01T04:31:14.915Z,61.74
2023-01-01T04:33:41.489Z,61.63
2023-01-01T04:36:12.229Z,62.00
2023-01-01T04:38:38.820Z,61.55
2023-01-01T04:41:08.244Z,61.78
2023-01-01T04:43:37.063Z,61.91
2023-01-01T04:46:06.205Z,61.66
2023-01-01T04:48:35.798Z,61.85
2023-01-01T04:51:05.565Z,61.88
2023-01-01T04:53:34.378Z,61.70
2023-01-01T04:56:08.567Z,62.08
2023-01-01T04:58:36.538Z,62.21
2023-01-01T05:01:04.108Z,61.95
2023-01-01T05:03:31.187Z,62.15
2023-01-01T05:06:06.424Z,62.22
2023-01-01T05:08:35.017Z,62.03
2023-01-01T05:11:09.255Z,62.20
2023-01-01T05:13:39.518Z,62.53
2023-01-01T05:16:10.037Z,62.87
2023-01-01T05:18:37.474Z,63.17
2023-01-01T05:21:06.910Z,63.83
2023-01-01T05:23:36.515Z,63.73
2023-01-01T05:26:13.195Z,64.09
2023-01-01T05:28:40.258Z,64.38
2023-01-01T05:31:11.190Z,64.54
2023-01-01T05:33:38.151Z,64.82
2023-01-01T05:36:07.092Z,65.14
2023-01-01T05:38:34.066Z,65.29
2023-01-01T05:41:08.599Z,65.52
2023-01-01T05:43:35.819Z,65.64
2023-01-01T05:46:07.087Z,65.76
2023-01-01T05:48:36.823Z,65.97
2023-01-01T05:51:24.699Z,66.10
2023-01-01T05:53:52.633Z,66.20
2023-01-01T05:56:19.614Z,66.23
2023-01-01T05:58:47.072Z,66.40
2023-01-01T06:01:20.304Z,66.65
2023-01-01T06:03:50.395Z,66.54
2023-01-01T06:06:19.564Z,66.78
2023-01-01T06:08:53.633Z,66.29
2023-01-01T06:11:20.608Z,66.21
2023-01-01T06:13:47.734Z,65.96
2023-01-01T06:16:14.998Z,65.65
2023-01-01T06:18:42.017Z,65.31
2023-01-01T06:21:13.929Z,66.22
2023-01-01T06:23:44.929Z,66.49
2023-01-01T06:26:16.842Z,67.14
2023-01-01T06:28:44.496Z,67.30
2023-01-01T06:31:15.939Z,67.71
2023-01-01T06:33:43.175Z,67.80
2023-01-01T06:36:12.214Z,68.28
2023-01-01T06:38:41.912Z,68.68
2023-01-01T06:41:14.850Z,69.09
2023-01-01T06:43:41.857Z,68.76
2023-01-01T06:46:21.839Z,69.04
2023-01-01T06:48:50.931Z,69.33
2023-01-01T06:51:29.288Z,69.17
2023-01-01T06:53:59.211Z,69.10
2023-01-01T06:56:26.132Z,69.34
2023-01-01T06:58:52.873Z,69.16
2023-01-01T07:01:22.164Z,69.17
2023-01-01T07:03:56.937Z,69.13
2023-01-01T07:06:24.744Z,69.09
2023-01-01T07:08:51.685Z,68.96
2023-01-01T07:11:18.923Z,68.99
2023-01-01T07:13:45.697Z,69.16
2023-01-01T07:16:13.588Z,68.82
2023-01-01T07:18:46.078Z,68.96
2023-01-01T07:21:44.164Z,69.04
2023-01-01T07:24:13.506Z,69.28
2023-01-01T07:26:41.108Z,69.45
2023-01-01T07:29:11.182Z,69.86
2023-01-01T07:31:40.577Z,69.86
2023-01-01T07:34:09.887Z,69.51
2023-01-01T07:36:38.928Z,70.04
2023-01-01T07:39:05.722Z,70.05
2023-01-01T07:41:32.294Z,69.91
2023-01-01T07:43:59.250Z,69.97
2023-01-01T07:46:28.088Z,70.22
2023-01-01T07:48:54.844Z,70.31
2023-01-01T07:51:21.509Z,70.37
2023-01-01T07:53:50.309Z,70.70
2023-01-01T07:56:17.171Z,70.70
2023-01-01T07:58:43.847Z,70.73
2023-01-01T08:01:12.285Z,71.16
2023-01-01T08:03:41.784Z,71.41
2023-01-01T08:06:13.456Z,71.88
2023-01-01T08:08:41.166Z,71.87
2023-01-01T08:11:08.291Z,72.10
2023-01-01T08:13:35.474Z,72.40
2023-01-01T08:16:02.143Z,72.74
2023-01-01T08:18:28.814Z,73.08
2023-01-01T08:20:57.640Z,73.49
2023-01-01T08:23:24.729Z,73.54
2023-01-01T08:25:51.528Z,73.61
2023-01-01T08:28:20.354Z,73.98
2023-01-01T08:30:46.924Z,74.36
2023-01-01T08:33:13.439Z,74.51
2023-01-01T08:35:42.632Z,74.87
2023-01-01T08:38:12.200Z,74.78
2023-01-01T08:40:39.139Z,74.97
2023-01-01T08:43:05.683Z,75.08
2023-01-01T08:45:32.288Z,75.21
2023-01-01T08:47:58.948Z,75.30
2023-01-01T08:50:25.459Z,75.39
2023-01-01T08:52:52.057Z,75.51
2023-01-01T08:55:21.209Z,75.95
2023-01-01T08:57:47.741Z,76.07
2023-01-01T09:00:14.929Z,76.31
2023-01-01T09:02:41.472Z,76.28
2023-01-01T09:05:08.864Z,76.70
2023-01-01T09:07:38.035Z,76.89
2023-01-01T09:10:05.068Z,76.90
2023-01-01T09:12:31.711Z,77.02
2023-01-01T09:15:01.270Z,76.93
2023-01-01T09:17:27.902Z,77.19
2023-01-01T09:19:54.495Z,77.52
2023-01-01T09:22:21.080Z,77.88
2023-01-01T09:24:48.342Z,78.40
2023-01-01T09:27:17.312Z,78.67
2023-01-01T09:29:44.191Z,78.77
2023-01-01T09:32:10.996Z,79.04
2023-01-01T09:34:38.062Z,79.49
2023-01-01T09:37:04.813Z,79.62
2023-01-01T09:39:31.312Z,79.97
2023-01-01T09:42:12.106Z,80.36
2023-01-01T09:44:44.250Z,80.47
2023-01-01T09:47:24.624Z,80.68
2023-01-01T09:49:55.893Z,80.79
2023-01-01T09:52:22.923Z,80.98
2023-01-01T09:55:02.666Z,81.03
2023-01-01T09:57:31.832Z,81.19
2023-01-01T10:00:02.214Z,81.40
2023-01-01T10:02:51.767Z,81.74
2023-01-01T10:05:26.067Z,81.78
2023-01-01T10:08:23.512Z,82.00
2023-01-01T10:10:56.174Z,81.97
2023-01-01T10:13:27.107Z,81.96
2023-01-01T10:16:04.219Z,81.96
2023-01-01T10:18:34.903Z,82.61
2023-01-01T10:21:15.598Z,82.49
2023-01-01T10:23:52.419Z,82.30
2023-01-01T10:26:26.202Z,82.45
2023-01-01T10:29:14.662Z,82.67
2023-01-01T10:31:45.347Z,82.45
2023-01-01T10:34:18.205Z,82.57
2023-01-01T10:36:44.875Z,82.30
2023-01-01T10:39:16.419Z,82.41
2023-01-01T10:41:44.507Z,82.47
2023-01-01T10:44:17.809Z,82.73
2023-01-01T10:46:49.166Z,82.68
2023-01-01T10:49:18.012Z,82.70
2023-01-01T10:51:51.925Z,82.70
2023-01-01T10:54:37.112Z,82.58
2023-01-01T10:57:16.618Z,82.54
2023-01-01T10:59:53.531Z,82.19
2023-01-01T11:02:24.994Z,81.82
2023-01-01T11:04:53.974Z,81.74
2023-01-01T11:07:31.782Z,81.92
2023-01-01T11:10:04.192Z,81.71
2023-01-01T11:13:04.231Z,81.61
2023-01-01T11:15:38.937Z,81.11
2023-01-01T11:18:20.501Z,81.53
2023-01-01T11:20:59.524Z,81.48
2023-01-01T11:23:36.426Z,81.54
2023-01-01T11:26:15.653Z,81.51
2023-01-01T11:28:42.394Z,81.64
2023-01-01T11:31:21.263Z,81.77
2023-01-01T11:33:53.815Z,81.75
2023-01-01T11:36:34.910Z,81.63
2023-01-01T11:39:13.663Z,81.87
2023-01-01T11:41:46.447Z,81.40
2023-01-01T11:44:25.884Z,81.79
2023-01-01T11:46:52.696Z,81.55
2023-01-01T11:49:25.265Z,81.63
2023-01-01T11:51:51.933Z,81.55
2023-01-01T11:54:37.616Z,81.34
2023-01-01T11:57:16.441Z,81.48
2023-01-01T11:59:55.456Z,81.27
2023-01-01T12:02:38.371Z,81.08
2023-01-01T12:05:20.803Z,80.55
2023-01-01T12:07:50.650Z,80.55
2023-01-01T12:10:27.693Z,80.77
2023-01-01T12:13:11.269Z,80.35
2023-01-01T12:16:04.061Z,80.11
2023-01-01T12:18:48.492Z,79.89
2023-01-01T12:21:24.991Z,79.67
2023-01-01T12:24:03.647Z,79.49
2023-01-01T12:26:51.469Z,79.43
2023-01-01T12:29:27.113Z,79.32
2023-01-01T12:32:06.028Z,79.33
2023-01-01T12:34:37.912Z,79.10
2023-01-01T12:37:43.015Z,78.99
2023-01-01T12:40:51.638Z,78.60
2023-01-01T12:43:26.576Z,78.56
2023-01-01T12:46:00.402Z,78.56
2023-01-01T12:48:36.655Z,78.47
2023-01-01T12:51:40.637Z,78.61
2023-01-01T12:54:28.132Z,78.37
2023-01-01T12:57:17.398Z,78.28
2023-01-01T12:59:49.279Z,78.12
2023-01-01T13:02:25.781Z,78.29
2023-01-01T13:05:00.349Z,78.21
2023-01-01T13:07:31.991Z,78.33
2023-01-01T13:10:11.702Z,78.35
2023-01-01T13:12:41.287Z,78.45
2023-01-01T13:15:39.529Z,78.47
2023-01-01T13:18:22.728Z,78.53
2023-01-01T13:21:08.917Z,78.66
2023-01-01T13:23:39.472Z,78.78
2023-01-01T13:26:18.047Z,78.65
2023-01-01T13:29:11.790Z,78.66
2023-01-01T13:31:38.501Z,78.71
2023-01-01T13:34:37.774Z,78.44
2023-01-01T13:37:10.493Z,78.37
2023-01-01T13:39:55.530Z,78.41
2023-01-01T13:42:57.697Z,78.44
2023-01-01T13:46:09.855Z,78.04
2023-01-01T13:48:45.235Z,78.12
2023-01-01T13:52:03.012Z,78.11
2023-01-01T13:54:36.071Z,78.25
2023-01-01T13:57:32.343Z,78.31
2023-01-01T14:00:17.998Z,78.34
2023-01-01T14:02:59.063Z,78.26
2023-01-01T14:05:44.293Z,78.26
2023-01-01T14:08:31.248Z,78.24
2023-01-01T14:11:00.697Z,78.35
2023-01-01T14:13:30.267Z,78.45
2023-01-01T14:16:01.705Z,78.45
2023-01-01T14:18:36.097Z,78.55
2023-01-01T14:21:03.135Z,78.37
2023-01-01T14:23:38.686Z,78.69
2023-01-01T14:26:18.829Z,78.44
2023-01-01T14:28:45.779Z,78.41
2023-01-01T14:31:19.303Z,78.20
2023-01-01T14:33:47.384Z,78.45
2023-01-01T14:36:27.460Z,78.41
2023-01-01T14:39:30.383Z,78.69
2023-01-01T14:42:32.759Z,78.68
2023-01-01T14:45:08.138Z,79.02
2023-01-01T14:47:41.259Z,78.74
2023-01-01T14:50:34.152Z,78.95
2023-01-01T14:53:16.326Z,78.88
2023-01-01T14:56:09.806Z,78.83
2023-01-01T14:58:36.672Z,78.92
2023-01-01T15:01:21.508Z,79.25
2023-01-01T15:03:57.353Z,79.20
2023-01-01T15:06:24.926Z,79.14
2023-01-01T15:08:52.495Z,79.14
2023-01-01T15:11:25.091Z,79.38
2023-01-01T15:13:56.881Z,79.28
2023-01-01T15:16:27.144Z,79.48
2023-01-01T15:18:57.195Z,79.77
2023-01-01T15:21:41.752Z,79.70
2023-01-01T15:24:20.561Z,79.61
2023-01-01T15:26:53.748Z,79.81
2023-01-01T15:29:41.455Z,79.85
2023-01-01T15:32:11.527Z,79.88
2023-01-01T15:34:52.672Z,79.97
2023-01-01T15:37:43.892Z,80.06
2023-01-01T15:40:13.360Z,80.12
2023-01-01T15:42:42.708Z,80.21
2023-01-01T15:45:23.928Z,80.51
2023-01-01T15:47:53.240Z,80.42
2023-01-01T15:50:25.779Z,80.81
2023-01-01T15:53:08.041Z,80.56
2023-01-01T15:55:36.914Z,80.62
2023-01-01T15:58:04.527Z,80.56
2023-01-01T16:00:35.742Z,80.63
2023-01-01T16:03:21.290Z,80.42
2023-01-01T16:05:53.127Z,80.60
2023-01-01T16:08:22.421Z,80.63
2023-01-01T16:10:49.497Z,81.04
2023-01-01T16:13:16.227Z,80.98
2023-01-01T16:15:55.624Z,80.89
2023-01-01T16:18:27.089Z,81.00
2023-01-01T16:21:20.428Z,81.15
2023-01-01T16:23:49.041Z,81.18
2023-01-01T16:26:15.571Z,81.24
2023-01-01T16:28:44.566Z,81.16
2023-01-01T16:31:31.513Z,81.50
2023-01-01T16:33:59.863Z,81.56
2023-01-01T16:36:32.338Z,82.05
2023-01-01T16:39:00.255Z,81.69
2023-01-01T16:41:30.736Z,82.15
2023-01-01T16:43:57.873Z,82.18
2023-01-01T16:46:28.121Z,82.59
2023-01-01T16:48:54.749Z,82.51
2023-01-01T16:51:26.950Z,82.84
2023-01-01T16:53:53.785Z,82.88
2023-01-01T16:56:20.414Z,82.81
2023-01-01T16:59:02.320Z,82.70
2023-01-01T17:02:33.403Z,83.12
2023-01-01T17:04:45.104Z,83.01
2023-01-01T17:07:11.749Z,83.37
2023-01-01T17:09:38.339Z,83.45
2023-01-01T17:12:05.146Z,83.44
2023-01-01T17:14:31.778Z,83.52
2023-01-01T17:16:58.283Z,83.74
2023-01-01T17:19:27.048Z,83.72
2023-01-01T17:21:53.919Z,83.86
2023-01-01T17:24:21.252Z,84.00
2023-01-01T17:26:52.835Z,83.98
2023-01-01T17:29:21.098Z,84.28
2023-01-01T17:31:50.179Z,84.52
2023-01-01T17:34:19.216Z,84.77
2023-01-01T17:36:45.945Z,84.91
2023-01-01T17:39:14.732Z,84.89
2023-01-01T17:41:42.816Z,85.27
2023-01-01T17:44:12.070Z,85.49
2023-01-01T17:46:39.297Z,85.53
2023-01-01T17:49:06.543Z,85.72
2023-01-01T17:51:33.204Z,85.96
2023-01-01T17:54:01.285Z,86.00
2023-01-01T17:56:27.848Z,86.14
2023-01-01T17:58:54.988Z,86.62
2023-01-01T18:01:21.715Z,86.38
2023-01-01T18:03:50.040Z,86.64
2023-01-01T18:06:19.420Z,86.71
2023-01-01T18:08:46.698Z,86.94
2023-01-01T18:11:13.639Z,86.95
2023-01-01T18:13:43.511Z,87.19
2023-01-01T18:16:10.582Z,87.49
2023-01-01T18:18:38.383Z,87.40
2023-01-01T18:21:07.468Z,87.66
2023-01-01T18:23:35.387Z,87.84
2023-01-01T18:26:03.267Z,87.71
2023-01-01T18:28:35.238Z,88.00
2023-01-01T18:31:12.999Z,88.16
2023-01-01T18:33:41.052Z,88.07
2023-01-01T18:36:13.253Z,88.43
2023-01-01T18:38:41.101Z,88.38
2023-01-01T18:41:42.050Z,88.40
2023-01-01T18:44:22.181Z,88.69
2023-01-01T18:46:56.507Z,88.50
2023-01-01T18:49:26.075Z,88.72
2023-01-01T18:52:09.498Z,89.04
2023-01-01T18:54:36.181Z,88.92
2023-01-01T18:57:23.717Z,89.13
2023-01-01T18:59:59.376Z,88.98
2023-01-01T19:02:46.341Z,89.25
2023-01-01T19:05:24.636Z,89.26
2023-01-01T19:08:09.042Z,89.60
2023-01-01T19:10:39.042Z,89.49
2023-01-01T19:13:29.226Z,89.65
2023-01-01T19:16:11.234Z,89.70
2023-01-01T19:18:40.171Z,89.84
2023-01-01T19:21:12.922Z,90.02
2023-01-01T19:24:00.777Z,90.05
2023-01-01T19:26:41.933Z,90.37
2023-01-01T19:29:22.220Z,90.33
2023-01-01T19:31:56.743Z,90.31
2023-01-01T19:34:24.620Z,90.39
2023-01-01T19:36:54.162Z,90.82
2023-01-01T19:39:23.232Z,90.97
2023-01-01T19:41:52.047Z,90.78
2023-01-01T19:44:24.768Z,91.13
2023-01-01T19:46:54.347Z,91.19
2023-01-01T19:49:23.125Z,91.24
2023-01-01T19:51:50.012Z,91.48
2023-01-01T19:54:16.618Z,91.42
2023-01-01T19:56:43.229Z,91.61
2023-01-01T19:59:16.393Z,91.79
2023-01-01T20:01:43.035Z,91.72
2023-01-01T20:04:09.905Z,91.77
2023-01-01T20:06:38.823Z,91.85
2023-01-01T20:09:05.472Z,92.06
2023-01-01T20:11:32.275Z,92.03
2023-01-01T20:14:01.110Z,92.23
2023-01-01T20:16:27.970Z,92.28
2023-01-01T20:19:02.234Z,92.37
2023-01-01T20:21:47.189Z,92.36
2023-01-01T20:24:13.848Z,92.39
2023-01-01T20:26:40.465Z,92.45
2023-01-01T20:29:22.169Z,92.53
2023-01-01T20:31:51.172Z,92.43
2023-01-01T20:34:17.945Z,92.65
2023-01-01T20:37:03.105Z,92.84
2023-01-01T20:39:29.630Z,92.33
2023-01-01T20:41:56.448Z,92.83
2023-01-01T20:44:23.120Z,92.77
2023-01-01T20:46:52.455Z,92.98
2023-01-01T20:49:20.188Z,92.93
2023-01-01T20:51:51.389Z,93.11
2023-01-01T20:54:19.306Z,93.33
2023-01-01T20:56:46.388Z,93.29
2023-01-01T20:59:34.077Z,93.36
2023-01-01T21:02:02.768Z,93.36
2023-01-01T21:04:31.995Z,93.68
2023-01-01T21:06:58.529Z,93.37
2023-01-01T21:09:25.055Z,93.95
2023-01-01T21:11:53.711Z,93.77
2023-01-01T21:14:23.983Z,94.02
2023-01-01T21:16:51.800Z,93.97
2023-01-01T21:19:26.610Z,93.97
2023-01-01T21:21:56.074Z,94.26
2023-01-01T21:24:39.709Z,94.12
2023-01-01T21:27:18.593Z,94.21
2023-01-01T21:29:47.903Z,94.25
2023-01-01T21:32:34.069Z,94.30
2023-01-01T21:35:00.643Z,94.24
2023-01-01T21:37:49.732Z,94.55
2023-01-01T21:40:25.150Z,94.55
2023-01-01T21:42:58.536Z,94.36
2023-01-01T21:45:31.325Z,94.50
2023-01-01T21:48:22.657Z,94.62
2023-01-01T21:50:51.988Z,94.55
2023-01-01T21:53:21.104Z,94.82
2023-01-01T21:55:53.583Z,94.95
2023-01-01T21:58:45.948Z,94.92
2023-01-01T22:01:32.642Z,94.86
2023-01-01T22:04:11.258Z,94.63
2023-01-01T22:06:43.425Z,94.77
2023-01-01T22:09:37.489Z,95.28
2023-01-01T22:12:13.171Z,94.95
2023-01-01T22:14:50.610Z,95.08
2023-01-01T22:17:23.887Z,94.96
2023-01-01T22:19:53.677Z,95.34
2023-01-01T22:22:23.186Z,95.23
2023-01-01T22:24:58.818Z,95.41
2023-01-01T22:27:29.090Z,95.41
2023-01-01T22:30:18.415Z,95.50
2023-01-01T22:32:50.668Z,95.52
2023-01-01T22:35:28.732Z,95.78
2023-01-01T22:37:56.488Z,95.89
2023-01-01T22:40:30.883Z,95.79
2023-01-01T22:43:02.431Z,95.91
2023-01-01T22:45:29.514Z,95.66
2023-01-01T22:48:01.481Z,96.13
2023-01-01T22:50:30.046Z,95.93
2023-01-01T22:52:57.620Z,95.94
2023-01-01T22:55:24.406Z,95.99
2023-01-01T22:57:51.148Z,95.85
2023-01-01T23:00:18.963Z,96.01
2023-01-01T23:02:46.048Z,96.13
2023-01-01T23:05:12.960Z,96.20
2023-01-01T23:07:43.333Z,96.25
2023-01-01T23:10:13.713Z,96.25
2023-01-01T23:12:40.726Z,96.30
2023-01-01T23:15:26.419Z,96.37
2023-01-01T23:17:52.931Z,96.33
2023-01-01T23:20:19.539Z,96.47
2023-01-01T23:22:55.173Z,96.68
2023-01-01T23:25:23.291Z,96.55
2023-01-01T23:27:52.135Z,96.57
2023-01-01T23:30:18.895Z,96.36
2023-01-01T23:32:48.113Z,96.74
2023-01-01T23:35:17.245Z,96.55
2023-01-01T23:37:43.833Z,96.61
2023-01-01T23:40:11.159Z,96.71
2023-01-01T23:42:37.735Z,96.63
2023-01-01T23:45:04.701Z,96.66
2023-01-01T23:47:31.243Z,96.61
2023-01-01T23:50:00.126Z,96.71
2023-01-01T23:52:26.925Z,96.56
2023-01-01T23:54:53.458Z,96.59
2023-01-01T23:57:22.745Z,96.57
2023-01-01T23:59:51.636Z,96.63
